createdAt,value
2023-10-12T00:02:29.565Z,96.80
2023-10-12T00:06:38.412Z,96.80
2023-10-12T00:10:45.612Z,96.70
2023-10-12T00:14:56.041Z,96.50
2023-10-12T00:19:01.824Z,96.50
2023-10-12T00:23:13.224Z,96.50
2023-10-12T00:27:19.529Z,96.30
2023-10-12T00:31:26.543Z,96.40
2023-10-12T00:35:33.963Z,96.40
2023-10-12T00:39:54.771Z,96.50
2023-10-12T00:44:06.103Z,96.40
2023-10-12T00:48:17.287Z,96.50
2023-10-12T00:52:25.027Z,96.40
2023-10-12T00:56:31.791Z,96.50
2023-10-12T01:00:46.947Z,96.60
2023-10-12T01:04:54.684Z,96.60
2023-10-12T01:09:05.127Z,96.50
2023-10-12T01:13:10.697Z,96.50
2023-10-12T01:17:30.706Z,96.60
2023-10-12T01:21:37.739Z,96.60
2023-10-12T01:25:45.600Z,96.60
2023-10-12T01:29:51.962Z,96.60
2023-10-12T01:33:59.324Z,96.90
2023-10-12T01:38:06.253Z,96.70
2023-10-12T01:42:12.951Z,96.60
2023-10-12T01:46:22.915Z,96.60
2023-10-12T01:50:29.684Z,96.60
2023-10-12T01:54:36.485Z,96.50
2023-10-12T01:58:44.724Z,96.50
2023-10-12T02:03:01.472Z,96.40
2023-10-12T02:07:10.807Z,96.40
2023-10-12T02:11:17.131Z,96.30
2023-10-12T02:15:25.612Z,96.30
2023-10-12T02:19:33.694Z,96.30
2023-10-12T02:23:54.672Z,96.30
2023-10-12T02:28:00.754Z,96.30
2023-10-12T02:32:25.789Z,96.40
2023-10-12T02:36:32.294Z,96.30
2023-10-12T02:40:38.323Z,96.40
2023-10-12T02:44:49.250Z,96.40
2023-10-12T02:48:54.806Z,96.40
2023-10-12T02:53:09.942Z,96.40
2023-10-12T02:57:16.155Z,96.40
2023-10-12T03:01:23.068Z,96.40
2023-10-12T03:05:46.446Z,96.50
2023-10-12T03:09:57.197Z,96.40
2023-10-12T03:14:14.338Z,96.40
2023-10-12T03:18:24.036Z,96.50
2023-10-12T03:22:36.299Z,96.50
2023-10-12T03:26:42.061Z,96.50
2023-10-12T03:30:54.512Z,96.50
2023-10-12T03:35:00.564Z,96.50
2023-10-12T03:39:15.382Z,96.50
2023-10-12T03:43:29.816Z,96.50
2023-10-12T03:47:48.171Z,96.50
2023-10-12T03:52:00.817Z,96.60
2023-10-12T03:56:09.057Z,96.60
2023-10-12T04:00:14.840Z,96.60
2023-10-12T04:04:30.933Z,96.60
2023-10-12T04:08:45.351Z,96.60
2023-10-12T04:12:55.519Z,96.60
2023-10-12T04:17:27.292Z,96.60
2023-10-12T04:21:37.484Z,96.90
2023-10-12T04:26:00.420Z,96.70
2023-10-12T04:30:22.370Z,96.70
2023-10-12T04:34:27.943Z,96.80
2023-10-12T04:38:42.294Z,96.80
2023-10-12T04:42:48.122Z,96.80
2023-10-12T04:47:06.868Z,96.90
2023-10-12T04:51:19.848Z,96.90
2023-10-12T04:55:29.915Z,96.90
2023-10-12T04:59:50.639Z,96.90
2023-10-12T05:04:10.356Z,96.90
2023-10-12T05:08:15.947Z,97.00
2023-10-12T05:12:27.199Z,96.90
2023-10-12T05:16:33.343Z,96.90
2023-10-12T05:20:45.206Z,96.90
2023-10-12T05:24:50.806Z,96.90
2023-10-12T05:29:18.694Z,96.90
2023-10-12T05:33:50.492Z,97.00
2023-10-12T05:37:57.653Z,97.00
2023-10-12T05:42:07.023Z,96.90
2023-10-12T05:46:14.984Z,96.90
2023-10-12T05:50:27.551Z,96.90
2023-10-12T05:54:33.310Z,96.90
2023-10-12T05:58:39.570Z,96.90
2023-10-12T06:02:46.420Z,96.90
2023-10-12T06:06:53.528Z,96.90
2023-10-12T06:10:59.892Z,96.90
2023-10-12T06:15:10.452Z,96.80
2023-10-12T06:19:28.663Z,96.80
2023-10-12T06:23:40.338Z,96.80
2023-10-12T06:27:46.112Z,96.80
2023-10-12T06:31:56.163Z,96.80
2023-10-12T06:36:02.507Z,96.80
2023-10-12T06:40:27.248Z,96.80
2023-10-12T06:44:34.446Z,96.80
2023-10-12T06:48:40.007Z,96.80
2023-10-12T06:52:45.632Z,96.80
2023-10-12T06:56:52.762Z,96.80
2023-10-12T07:01:01.327Z,96.90
2023-10-12T07:05:07.600Z,96.80
2023-10-12T07:09:13.893Z,96.80
2023-10-12T07:13:19.446Z,96.80
2023-10-12T07:17:33.797Z,96.70
2023-10-12T07:21:39.446Z,96.70
2023-10-12T07:25:50.400Z,96.70
2023-10-12T07:30:11.928Z,96.70
2023-10-12T07:34:17.590Z,96.80
2023-10-12T07:38:36.389Z,96.80
2023-10-12T07:42:43.110Z,96.80
2023-10-12T07:46:50.243Z,96.90
2023-10-12T07:50:55.863Z,96.90
2023-10-12T07:55:01.513Z,97.00
2023-10-12T07:59:15.333Z,97.00
2023-10-12T08:03:26.629Z,97.10
2023-10-12T08:07:52.474Z,97.10
2023-10-12T08:11:58.037Z,97.10
2023-10-12T08:16:05.969Z,97.10
2023-10-12T08:20:30.442Z,96.80
2023-10-12T08:24:41.160Z,96.70
2023-10-12T08:28:56.674Z,96.60
2023-10-12T08:33:15.552Z,96.40
2023-10-12T08:37:21.649Z,96.50
2023-10-12T08:41:27.378Z,96.10
2023-10-12T08:45:34.967Z,95.90
2023-10-12T08:49:53.970Z,95.90
2023-10-12T08:54:01.892Z,95.80
2023-10-12T08:58:40.057Z,95.80
2023-10-12T09:03:01.779Z,95.70
2023-10-12T09:07:07.495Z,95.60
2023-10-12T09:11:14.404Z,95.40
2023-10-12T09:15:30.448Z,95.00
2023-10-12T09:19:35.975Z,94.80
2023-10-12T09:24:01.008Z,94.80
2023-10-12T09:28:06.748Z,94.60
2023-10-12T09:32:17.058Z,94.80
2023-10-12T09:36:23.994Z,94.70
2023-10-12T09:40:36.833Z,94.60
2023-10-12T09:44:42.905Z,94.20
2023-10-12T09:48:49.213Z,94.00
2023-10-12T09:53:00.092Z,93.60
2023-10-12T09:57:17.667Z,93.30
2023-10-12T10:01:34.112Z,93.20
2023-10-12T10:06:03.464Z,93.10
2023-10-12T10:10:28.355Z,93.10
2023-10-12T10:14:36.485Z,92.90
2023-10-12T10:18:58.418Z,93.10
2023-10-12T10:23:05.256Z,92.90
2023-10-12T10:27:12.717Z,92.80
2023-10-12T10:31:27.596Z,92.20
2023-10-12T10:36:12.109Z,91.80
2023-10-12T10:40:21.539Z,91.80
2023-10-12T10:44:28.670Z,91.80
2023-10-12T10:49:14.875Z,92.10
2023-10-12T10:53:09.526Z,91.20
2023-10-12T10:57:18.546Z,91.40
2023-10-12T11:01:27.815Z,91.30
2023-10-12T11:05:38.818Z,91.50
2023-10-12T11:09:49.707Z,91.20
2023-10-12T11:13:56.937Z,91.10
2023-10-12T11:18:08.855Z,91.30
2023-10-12T11:22:15.317Z,91.40
2023-10-12T11:26:21.960Z,90.90
2023-10-12T11:30:32.644Z,90.90
2023-10-12T11:34:46.625Z,90.60
2023-10-12T11:39:11.720Z,89.70
2023-10-12T11:43:17.337Z,87.90
2023-10-12T11:47:25.695Z,90.10
2023-10-12T11:51:32.203Z,88.60
2023-10-12T11:55:41.404Z,89.90
2023-10-12T11:59:46.967Z,90.10
2023-10-12T12:03:54.997Z,88.60
2023-10-12T12:08:08.952Z,88.50
2023-10-12T12:12:14.536Z,88.20
2023-10-12T12:16:23.258Z,88.30
2023-10-12T12:20:28.971Z,88.40
2023-10-12T12:24:34.535Z,88.60
2023-10-12T12:28:46.315Z,89.00
2023-10-12T12:32:52.010Z,89.00
2023-10-12T12:36:57.672Z,87.70
2023-10-12T12:41:07.201Z,88.90
2023-10-12T12:45:13.097Z,88.10
2023-10-12T12:49:18.614Z,87.70
2023-10-12T12:53:24.315Z,86.80
2023-10-12T12:57:30.950Z,85.30
2023-10-12T13:01:39.394Z,85.20
2023-10-12T13:05:44.973Z,85.00
2023-10-12T13:09:50.835Z,83.80
2023-10-12T13:13:56.370Z,83.70
2023-10-12T13:18:02.067Z,84.00
2023-10-12T13:22:10.117Z,84.10
2023-10-12T13:26:19.350Z,83.50
2023-10-12T13:30:24.997Z,82.60
2023-10-12T13:34:34.927Z,83.30
2023-10-12T13:38:41.409Z,82.70
2023-10-12T13:42:47.666Z,82.60
2023-10-12T13:46:53.957Z,82.90
2023-10-12T13:51:03.099Z,82.90
2023-10-12T13:55:15.047Z,84.30
2023-10-12T13:59:24.780Z,81.30
2023-10-12T14:03:36.365Z,81.50
2023-10-12T14:07:42.230Z,80.60
2023-10-12T14:11:52.612Z,80.90
2023-10-12T14:15:58.431Z,79.20
2023-10-12T14:20:05.141Z,78.90
2023-10-12T14:24:10.887Z,79.00
2023-10-12T14:28:19.383Z,78.10
2023-10-12T14:32:26.854Z,77.60
2023-10-12T14:36:32.485Z,76.80
2023-10-12T14:40:41.790Z,77.00
2023-10-12T14:44:52.735Z,78.40
2023-10-12T14:48:59.724Z,78.20
2023-10-12T14:53:10.728Z,78.80
2023-10-12T14:57:18.160Z,78.50
2023-10-12T15:01:29.262Z,79.10
2023-10-12T15:05:38.950Z,80.20
2023-10-12T15:09:50.286Z,80.00
2023-10-12T15:13:56.260Z,80.40
2023-10-12T15:18:01.792Z,80.50
2023-10-12T15:22:07.632Z,80.90
2023-10-12T15:26:14.960Z,81.00
2023-10-12T15:30:23.672Z,80.80
2023-10-12T15:34:29.516Z,80.90
2023-10-12T15:38:35.277Z,81.30
2023-10-12T15:42:41.501Z,81.00
2023-10-12T15:46:50.228Z,80.70
2023-10-12T15:50:55.942Z,80.90
2023-10-12T15:55:01.699Z,81.90
2023-10-12T15:59:08.182Z,81.00
2023-10-12T16:03:15.554Z,81.60
2023-10-12T16:07:21.701Z,81.90
2023-10-12T16:11:27.313Z,82.60
2023-10-12T16:15:35.321Z,83.90
2023-10-12T16:19:40.891Z,85.20
2023-10-12T16:23:47.370Z,85.60
2023-10-12T16:27:53.144Z,86.20
2023-10-12T16:32:00.075Z,87.00
2023-10-12T16:36:12.571Z,87.40
2023-10-12T16:40:19.649Z,87.60
2023-10-12T16:44:28.422Z,88.20
2023-10-12T16:48:34.824Z,88.70
2023-10-12T16:52:41.130Z,89.10
2023-10-12T16:56:48.866Z,89.30
2023-10-12T17:00:58.201Z,89.50
2023-10-12T17:05:04.495Z,89.70
2023-10-12T17:09:12.942Z,90.10
2023-10-12T17:13:23.273Z,90.20
2023-10-12T17:17:29.224Z,90.40
2023-10-12T17:21:34.987Z,90.40
2023-10-12T17:25:40.856Z,90.50
2023-10-12T17:29:46.493Z,90.50
2023-10-12T17:33:52.025Z,90.60
2023-10-12T17:37:57.543Z,90.80
2023-10-12T17:42:03.161Z,90.80
2023-10-12T17:46:08.742Z,91.00
2023-10-12T17:50:15.262Z,91.00
2023-10-12T17:54:22.386Z,91.10
2023-10-12T17:58:27.955Z,91.50
2023-10-12T18:02:33.595Z,91.30
2023-10-12T18:06:39.899Z,91.30
2023-10-12T18:10:46.704Z,91.50
2023-10-12T18:14:52.411Z,91.50
2023-10-12T18:18:57.966Z,91.50
2023-10-12T18:23:07.007Z,91.80
2023-10-12T18:27:12.710Z,91.80
2023-10-12T18:31:18.293Z,91.80
2023-10-12T18:35:23.954Z,91.80
2023-10-12T18:39:31.844Z,91.90
2023-10-12T18:43:42.897Z,91.90
2023-10-12T18:47:52.643Z,91.90
2023-10-12T18:51:59.622Z,91.80
2023-10-12T18:56:07.637Z,91.90
2023-10-12T19:00:21.327Z,92.00
2023-10-12T19:04:28.412Z,92.10
2023-10-12T19:08:35.000Z,92.10
2023-10-12T19:12:41.912Z,92.10
2023-10-12T19:16:47.500Z,92.20
2023-10-12T19:20:56.862Z,92.30
2023-10-12T19:25:02.652Z,92.30
2023-10-12T19:29:08.359Z,92.60
2023-10-12T19:33:13.916Z,92.20
2023-10-12T19:37:19.649Z,92.40
2023-10-12T19:41:27.627Z,92.40
2023-10-12T19:45:35.812Z,92.40
2023-10-12T19:49:41.296Z,92.40
2023-10-12T19:53:49.248Z,92.40
2023-10-12T19:57:54.884Z,92.50
2023-10-12T20:02:12.606Z,92.50
2023-10-12T20:06:20.729Z,92.50
2023-10-12T20:10:26.656Z,92.50
2023-10-12T20:14:33.288Z,92.60
2023-10-12T20:18:40.151Z,92.70
2023-10-12T20:22:47.584Z,92.80
2023-10-12T20:26:53.063Z,92.80
2023-10-12T20:30:58.711Z,92.90
2023-10-12T20:35:06.753Z,92.80
2023-10-12T20:39:12.485Z,92.90
2023-10-12T20:43:18.782Z,92.90
2023-10-12T20:47:24.326Z,92.90
2023-10-12T20:51:30.842Z,92.90
2023-10-12T20:55:44.507Z,93.00
2023-10-12T20:59:52.721Z,93.00
2023-10-12T21:03:58.599Z,93.00
2023-10-12T21:08:04.911Z,92.90
2023-10-12T21:12:22.440Z,92.90
2023-10-12T21:16:28.640Z,92.90
2023-10-12T21:20:38.803Z,93.00
2023-10-12T21:24:44.422Z,93.00
2023-10-12T21:28:55.360Z,93.00
2023-10-12T21:33:11.348Z,93.00
2023-10-12T21:37:21.148Z,93.20
2023-10-12T21:41:34.477Z,93.30
2023-10-12T21:45:50.298Z,93.30
2023-10-12T21:49:56.076Z,93.20
2023-10-12T21:54:07.664Z,93.20
2023-10-12T21:58:13.292Z,93.30
2023-10-12T22:02:22.097Z,93.30
2023-10-12T22:06:29.882Z,93.40
2023-10-12T22:10:37.463Z,93.30
2023-10-12T22:15:01.098Z,93.40
2023-10-12T22:19:10.110Z,93.40
2023-10-12T22:23:15.761Z,93.50
2023-10-12T22:27:23.118Z,93.70
2023-10-12T22:31:28.834Z,93.70
2023-10-12T22:39:42.320Z,94.00
2023-10-12T22:43:48.189Z,94.10
2023-10-12T22:47:53.927Z,94.20
2023-10-12T22:52:01.126Z,94.30
2023-10-12T22:56:07.293Z,94.30
2023-10-12T23:00:23.136Z,94.40
2023-10-12T23:04:28.967Z,94.40
2023-10-12T23:08:36.385Z,94.40
2023-10-12T23:12:50.555Z,94.70
2023-10-12T23:16:59.469Z,94.80
2023-10-12T23:21:15.271Z,94.70
2023-10-12T23:25:20.829Z,94.60
2023-10-12T23:29:26.520Z,94.60
2023-10-12T23:33:35.442Z,94.70
2023-10-12T23:38:00.989Z,94.90
2023-10-12T23:42:10.107Z,95.00
2023-10-12T23:46:17.067Z,95.00
2023-10-12T23:50:28.947Z,95.10
2023-10-12T23:54:34.977Z,95.10
2023-10-12T23:58:41.348Z,95.20
